createdAt,value
2023-04-19T00:02:22.944Z,14.57
2023-04-19T00:04:49.909Z,14.53
2023-04-19T00:07:20.323Z,14.48
2023-04-19T00:09:47.205Z,14.42
2023-04-19T00:12:14.032Z,14.38
2023-04-19T00:14:40.784Z,14.33
2023-04-19T00:17:07.582Z,14.26
2023-04-19T00:19:34.453Z,14.22
2023-04-19T00:22:01.262Z,14.14
2023-04-19T00:24:28.312Z,14.07
2023-04-19T00:26:55.299Z,13.99
2023-04-19T00:29:22.049Z,13.92
2023-04-19T00:31:48.843Z,13.82
2023-04-19T00:34:16.225Z,13.72
2023-04-19T00:36:43.141Z,13.63
2023-04-19T00:39:09.917Z,13.56
2023-04-19T00:41:36.688Z,13.49
2023-04-19T00:44:03.489Z,13.43
2023-04-19T00:46:30.627Z,13.34
2023-04-19T00:48:57.817Z,13.29
2023-04-19T00:51:24.624Z,13.22
2023-04-19T00:53:52.139Z,13.15
2023-04-19T00:56:22.341Z,13.10
2023-04-19T00:58:49.590Z,13.05
2023-04-19T01:01:16.842Z,12.98
2023-04-19T01:03:44.460Z,12.94
2023-04-19T01:06:11.797Z,12.90
2023-04-19T01:08:39.567Z,12.85
2023-04-19T01:11:07.961Z,12.80
2023-04-19T01:13:34.905Z,12.74
2023-04-19T01:16:01.707Z,12.70
2023-04-19T01:18:32.887Z,12.64
2023-04-19T01:20:59.762Z,12.60
2023-04-19T01:23:26.554Z,12.57
2023-04-19T01:25:53.299Z,12.50
2023-04-19T01:28:20.076Z,12.46
2023-04-19T01:30:46.842Z,12.41
2023-04-19T01:33:13.584Z,12.37
2023-04-19T01:35:40.450Z,12.33
2023-04-19T01:38:07.266Z,12.29
2023-04-19T01:40:36.338Z,12.23
2023-04-19T01:43:03.318Z,12.21
2023-04-19T01:45:30.221Z,12.17
2023-04-19T01:47:57.027Z,12.14
2023-04-19T01:50:23.891Z,12.11
2023-04-19T01:52:50.662Z,12.07
2023-04-19T01:55:17.557Z,12.05
2023-04-19T01:57:44.524Z,12.00
2023-04-19T02:00:11.949Z,11.97
2023-04-19T02:02:39.008Z,11.95
2023-04-19T02:05:07.066Z,11.91
2023-04-19T02:07:34.026Z,11.87
2023-04-19T02:10:00.836Z,11.83
2023-04-19T02:12:31.335Z,11.80
2023-04-19T02:14:59.438Z,11.76
2023-04-19T02:17:26.607Z,11.74
2023-04-19T02:19:53.392Z,11.70
2023-04-19T02:22:20.718Z,11.67
2023-04-19T02:24:49.802Z,11.65
2023-04-19T02:27:17.178Z,11.59
2023-04-19T02:29:44.412Z,11.55
2023-04-19T02:32:14.326Z,11.51
2023-04-19T02:34:41.182Z,11.46
2023-04-19T02:37:07.998Z,11.43
2023-04-19T02:39:34.756Z,11.40
2023-04-19T02:42:02.234Z,11.36
2023-04-19T02:44:28.988Z,11.33
2023-04-19T02:46:57.541Z,11.30
2023-04-19T02:49:24.401Z,11.28
2023-04-19T02:51:52.750Z,11.25
2023-04-19T02:54:19.531Z,11.23
2023-04-19T02:56:46.315Z,11.20
2023-04-19T02:59:13.095Z,11.18
2023-04-19T03:01:39.879Z,11.16
2023-04-19T03:04:06.925Z,11.15
2023-04-19T03:06:33.787Z,11.11
2023-04-19T03:09:00.793Z,11.08
2023-04-19T03:11:27.626Z,11.06
2023-04-19T03:13:54.403Z,11.04
2023-04-19T03:16:21.221Z,11.01
2023-04-19T03:18:49.488Z,10.98
2023-04-19T03:21:16.483Z,10.96
2023-04-19T03:23:43.246Z,10.94
2023-04-19T03:26:10.136Z,10.92
2023-04-19T03:28:37.109Z,10.91
2023-04-19T03:31:03.957Z,10.90
2023-04-19T03:33:30.779Z,10.90
2023-04-19T03:35:57.537Z,10.90
2023-04-19T03:38:24.309Z,10.86
2023-04-19T03:40:51.183Z,10.83
2023-04-19T03:43:18.432Z,10.83
2023-04-19T03:45:45.166Z,10.81
2023-04-19T03:48:11.959Z,10.78
2023-04-19T03:50:38.759Z,10.75
2023-04-19T03:53:05.824Z,10.73
2023-04-19T03:55:32.604Z,10.71
2023-04-19T03:57:59.534Z,10.68
2023-04-19T04:00:27.353Z,10.65
2023-04-19T04:02:54.296Z,10.62
2023-04-19T04:05:21.339Z,10.61
2023-04-19T04:07:48.141Z,10.57
2023-04-19T04:10:14.932Z,10.56
2023-04-19T04:12:41.689Z,10.54
2023-04-19T04:15:09.142Z,10.53
2023-04-19T04:17:35.961Z,10.51
2023-04-19T04:20:03.241Z,10.49
2023-04-19T04:22:29.979Z,10.47
2023-04-19T04:24:58.102Z,10.46
2023-04-19T04:27:24.891Z,10.44
2023-04-19T04:29:51.651Z,10.44
2023-04-19T04:32:22.897Z,10.43
2023-04-19T04:34:50.325Z,10.41
2023-04-19T04:37:17.820Z,10.42
2023-04-19T04:39:44.613Z,10.42
2023-04-19T04:42:12.128Z,10.43
2023-04-19T04:44:39.006Z,10.45
2023-04-19T04:47:05.839Z,10.44
2023-04-19T04:49:32.685Z,10.45
2023-04-19T04:51:59.564Z,10.47
2023-04-19T04:54:26.320Z,10.50
2023-04-19T04:56:53.093Z,10.53
2023-04-19T04:59:19.909Z,10.57
2023-04-19T05:01:46.777Z,10.64
2023-04-19T05:04:13.824Z,10.85
2023-04-19T05:06:41.051Z,11.09
2023-04-19T05:09:08.097Z,11.40
2023-04-19T05:11:35.094Z,11.77
2023-04-19T05:14:02.805Z,12.13
2023-04-19T05:16:29.729Z,12.48
2023-04-19T05:18:56.640Z,12.77
2023-04-19T05:21:23.430Z,13.03
2023-04-19T05:23:53.311Z,13.33
2023-04-19T05:26:20.141Z,13.67
2023-04-19T05:28:46.997Z,13.91
2023-04-19T05:31:14.170Z,14.04
2023-04-19T05:33:41.004Z,14.19
2023-04-19T05:36:08.138Z,14.37
2023-04-19T05:38:34.882Z,14.64
2023-04-19T05:41:03.129Z,14.99
2023-04-19T05:43:29.940Z,15.35
2023-04-19T05:45:57.019Z,15.70
2023-04-19T05:48:25.288Z,16.08
2023-04-19T05:50:56.562Z,16.35
2023-04-19T05:53:23.492Z,16.66
2023-04-19T05:55:51.359Z,16.99
2023-04-19T05:58:19.004Z,17.30
2023-04-19T06:00:46.369Z,17.63
2023-04-19T06:03:13.288Z,17.82
2023-04-19T06:05:40.932Z,17.92
2023-04-19T06:08:09.364Z,17.89
2023-04-19T06:10:52.793Z,17.79
2023-04-19T06:13:21.134Z,17.72
2023-04-19T06:15:48.747Z,17.74
2023-04-19T06:18:19.645Z,17.81
2023-04-19T06:20:47.251Z,17.92
2023-04-19T06:23:15.062Z,17.97
2023-04-19T06:25:42.025Z,17.79
2023-04-19T06:28:08.806Z,17.62
2023-04-19T06:30:35.693Z,17.58
2023-04-19T06:33:02.624Z,17.52
2023-04-19T06:35:29.403Z,17.34
2023-04-19T06:37:56.157Z,17.37
2023-04-19T06:40:24.106Z,17.50
2023-04-19T06:42:50.908Z,17.50
2023-04-19T06:45:17.828Z,17.39
2023-04-19T06:47:44.715Z,17.21
2023-04-19T06:50:11.749Z,17.09
2023-04-19T06:52:38.969Z,17.02
2023-04-19T06:55:07.420Z,16.98
2023-04-19T06:57:34.213Z,16.94
2023-04-19T07:00:01.311Z,17.08
2023-04-19T07:02:28.381Z,17.39
2023-04-19T07:04:55.427Z,17.75
2023-04-19T07:07:22.226Z,18.09
2023-04-19T07:09:48.978Z,18.20
2023-04-19T07:12:16.033Z,18.19
2023-04-19T07:14:42.785Z,18.16
2023-04-19T07:17:09.611Z,18.40
2023-04-19T07:19:36.418Z,18.77
2023-04-19T07:22:03.503Z,19.18
2023-04-19T07:24:30.418Z,19.48
2023-04-19T07:26:57.586Z,19.59
2023-04-19T07:29:24.348Z,19.74
2023-04-19T07:31:51.303Z,19.86
2023-04-19T07:34:18.387Z,20.03
2023-04-19T07:36:45.369Z,20.19
2023-04-19T07:39:13.191Z,20.23
2023-04-19T07:41:40.037Z,20.30
2023-04-19T07:44:06.804Z,20.37
2023-04-19T07:46:33.608Z,20.39
2023-04-19T07:49:00.484Z,20.24
2023-04-19T07:51:27.385Z,19.95
2023-04-19T07:53:54.213Z,19.58
2023-04-19T07:56:22.866Z,19.56
2023-04-19T07:59:04.119Z,19.53
2023-04-19T08:01:34.908Z,19.35
2023-04-19T08:04:02.398Z,19.17
2023-04-19T08:06:30.713Z,18.94
2023-04-19T08:08:57.510Z,18.68
2023-04-19T08:11:25.266Z,18.38
2023-04-19T08:14:04.444Z,18.14
2023-04-19T08:19:05.922Z,17.89
2023-04-19T08:21:40.684Z,17.84
2023-04-19T08:24:08.516Z,17.78
2023-04-19T08:26:35.414Z,17.70
2023-04-19T08:29:02.444Z,17.70
2023-04-19T08:31:29.444Z,17.74
2023-04-19T08:33:56.966Z,17.76
2023-04-19T08:36:37.036Z,17.73
2023-04-19T08:39:10.372Z,17.65
2023-04-19T08:41:48.096Z,17.56
2023-04-19T08:44:32.480Z,17.49
2023-04-19T08:47:02.771Z,17.45
2023-04-19T08:49:29.870Z,17.34
2023-04-19T08:51:58.919Z,17.24
2023-04-19T08:54:26.354Z,17.17
2023-04-19T08:56:54.446Z,17.15
2023-04-19T08:59:21.435Z,17.18
2023-04-19T09:01:48.406Z,17.18
2023-04-19T09:06:45.197Z,17.16
2023-04-19T09:09:34.188Z,17.15
2023-04-19T09:12:04.067Z,17.12
2023-04-19T09:14:30.864Z,17.11
2023-04-19T09:17:16.811Z,17.09
2023-04-19T09:19:49.525Z,17.01
2023-04-19T09:22:16.947Z,16.98
2023-04-19T09:27:15.847Z,16.96
2023-04-19T09:29:52.944Z,16.96
2023-04-19T09:32:19.886Z,16.98
2023-04-19T09:34:58.073Z,17.02
2023-04-19T09:39:56.393Z,17.04
2023-04-19T09:42:42.369Z,17.04
2023-04-19T09:47:41.010Z,17.03
2023-04-19T09:50:22.601Z,17.08
2023-04-19T09:52:52.431Z,17.15
2023-04-19T09:57:49.882Z,17.33
2023-04-19T10:00:17.029Z,17.38
2023-04-19T10:02:48.761Z,17.44
2023-04-19T10:05:21.259Z,17.50
2023-04-19T10:07:49.546Z,17.55
2023-04-19T10:10:20.712Z,17.61
2023-04-19T10:15:23.488Z,17.64
2023-04-19T10:17:50.941Z,17.64
2023-04-19T10:20:30.801Z,17.67
2023-04-19T10:22:57.804Z,17.72
2023-04-19T10:25:30.938Z,17.78
2023-04-19T10:27:57.934Z,17.83
2023-04-19T10:30:28.393Z,17.83
2023-04-19T10:32:58.818Z,17.90
2023-04-19T10:35:37.672Z,17.97
2023-04-19T10:38:16.376Z,18.01
2023-04-19T10:40:56.176Z,18.04
2023-04-19T10:43:36.860Z,18.06
2023-04-19T10:46:22.971Z,18.07
2023-04-19T10:48:53.766Z,18.10
2023-04-19T10:51:23.863Z,18.13
2023-04-19T10:53:56.015Z,18.17
2023-04-19T10:57:02.778Z,18.17
2023-04-19T10:59:37.597Z,18.16
2023-04-19T11:02:26.061Z,18.19
2023-04-19T11:04:52.946Z,18.26
2023-04-19T11:07:21.355Z,18.34
2023-04-19T11:09:49.952Z,18.40
2023-04-19T11:12:20.955Z,18.46
2023-04-19T11:14:59.733Z,18.53
2023-04-19T11:17:29.252Z,18.57
2023-04-19T11:19:59.508Z,18.60
2023-04-19T11:22:29.609Z,18.64
2023-04-19T11:24:56.417Z,18.70
2023-04-19T11:27:23.276Z,18.74
2023-04-19T11:29:50.094Z,18.75
2023-04-19T11:32:16.884Z,18.78
2023-04-19T11:34:43.700Z,18.82
2023-04-19T11:37:11.573Z,18.83
2023-04-19T11:39:47.304Z,18.85
2023-04-19T11:42:20.639Z,18.88
2023-04-19T11:44:52.090Z,18.92
2023-04-19T11:47:20.201Z,18.96
2023-04-19T11:49:47.045Z,19.02
2023-04-19T11:52:22.480Z,19.06
2023-04-19T11:54:50.403Z,19.05
2023-04-19T11:57:29.083Z,19.06
2023-04-19T12:00:08.213Z,19.07
2023-04-19T12:02:39.623Z,19.10
2023-04-19T12:05:11.613Z,19.13
2023-04-19T12:07:58.407Z,19.23
2023-04-19T12:10:25.335Z,19.33
2023-04-19T12:12:52.108Z,19.44
2023-04-19T12:15:18.962Z,19.45
2023-04-19T12:18:02.390Z,19.53
2023-04-19T12:20:33.778Z,19.60
2023-04-19T12:23:00.705Z,19.64
2023-04-19T12:25:33.067Z,19.57
2023-04-19T12:28:07.022Z,19.50
2023-04-19T12:30:36.423Z,19.51
2023-04-19T12:33:03.469Z,19.57
2023-04-19T12:35:30.713Z,19.74
2023-04-19T12:37:59.285Z,19.82
2023-04-19T12:40:27.333Z,19.79
2023-04-19T12:42:54.850Z,19.78
2023-04-19T12:45:21.765Z,19.74
2023-04-19T12:47:49.207Z,19.71
2023-04-19T12:50:16.413Z,19.71
2023-04-19T12:52:46.223Z,19.73
2023-04-19T12:55:13.225Z,19.72
2023-04-19T12:57:40.112Z,19.70
2023-04-19T13:00:07.759Z,19.68
2023-04-19T13:02:35.327Z,19.72
2023-04-19T13:05:04.255Z,19.77
2023-04-19T13:07:31.566Z,19.75
2023-04-19T13:09:58.402Z,19.74
2023-04-19T13:12:25.296Z,19.77
2023-04-19T13:14:52.712Z,19.82
2023-04-19T13:17:20.441Z,19.76
2023-04-19T13:19:47.649Z,19.66
2023-04-19T13:22:15.785Z,19.58
2023-04-19T13:24:42.692Z,19.53
2023-04-19T13:27:09.599Z,19.45
2023-04-19T13:29:36.765Z,19.44
2023-04-19T13:32:03.559Z,19.40
2023-04-19T13:34:30.577Z,19.39
2023-04-19T13:36:58.213Z,19.35
2023-04-19T13:39:25.401Z,19.30
2023-04-19T13:41:52.282Z,19.24
2023-04-19T13:44:19.315Z,19.16
2023-04-19T13:46:46.199Z,19.12
2023-04-19T13:49:13.034Z,19.13
2023-04-19T13:51:49.487Z,19.15
2023-04-19T13:54:18.322Z,19.13
2023-04-19T13:56:45.800Z,19.15
2023-04-19T13:59:12.595Z,19.19
2023-04-19T14:01:39.477Z,19.28
2023-04-19T14:04:06.721Z,19.36
2023-04-19T14:06:33.885Z,19.46
2023-04-19T14:09:00.655Z,19.55
2023-04-19T14:11:28.203Z,19.56
2023-04-19T14:13:55.656Z,19.55
2023-04-19T14:16:25.136Z,19.55
2023-04-19T14:18:52.434Z,19.61
2023-04-19T14:21:22.716Z,19.57
2023-04-19T14:23:49.506Z,19.49
2023-04-19T14:26:16.309Z,19.36
2023-04-19T14:28:43.134Z,19.28
2023-04-19T14:31:09.931Z,19.26
2023-04-19T14:33:36.744Z,19.29
2023-04-19T14:36:03.992Z,19.25
2023-04-19T14:38:30.855Z,19.20
2023-04-19T14:40:57.655Z,19.10
2023-04-19T14:43:24.411Z,19.01
2023-04-19T14:45:52.695Z,19.01
2023-04-19T14:48:21.910Z,19.10
2023-04-19T14:50:49.045Z,19.21
2023-04-19T14:53:16.119Z,19.34
2023-04-19T14:55:42.941Z,19.39
2023-04-19T14:58:09.815Z,19.39
2023-04-19T15:00:36.607Z,19.33
2023-04-19T15:03:03.530Z,19.21
2023-04-19T15:05:30.662Z,19.12
2023-04-19T15:07:57.483Z,19.08
2023-04-19T15:10:24.354Z,19.09
2023-04-19T15:12:51.121Z,19.14
2023-04-19T15:15:17.870Z,19.17
2023-04-19T15:17:44.881Z,19.17
2023-04-19T15:20:12.000Z,19.13
2023-04-19T15:22:38.899Z,19.06
2023-04-19T15:25:06.102Z,18.98
2023-04-19T15:27:32.920Z,18.92
2023-04-19T15:29:59.781Z,18.88
2023-04-19T15:32:28.924Z,18.87
2023-04-19T15:34:55.833Z,18.88
2023-04-19T15:37:22.653Z,18.90
2023-04-19T15:39:50.215Z,18.91
2023-04-19T15:42:17.066Z,18.91
2023-04-19T15:44:44.373Z,18.91
2023-04-19T15:47:11.245Z,18.92
2023-04-19T15:49:40.417Z,18.91
2023-04-19T15:52:08.750Z,18.87
2023-04-19T15:54:37.587Z,18.78
2023-04-19T15:57:04.396Z,18.68
2023-04-19T15:59:31.600Z,18.59
2023-04-19T16:01:58.523Z,18.48
2023-04-19T16:04:25.764Z,18.40
2023-04-19T16:06:52.753Z,18.33
2023-04-19T16:09:19.558Z,18.31
2023-04-19T16:11:46.463Z,18.33
2023-04-19T16:14:13.391Z,18.31
2023-04-19T16:16:40.282Z,18.30
2023-04-19T16:19:07.173Z,18.28
2023-04-19T16:21:34.046Z,18.26
2023-04-19T16:24:00.983Z,18.24
2023-04-19T16:26:27.905Z,18.24
2023-04-19T16:28:54.800Z,18.28
2023-04-19T16:31:21.756Z,18.32
2023-04-19T16:33:48.654Z,18.37
2023-04-19T16:36:15.450Z,18.38
2023-04-19T16:38:42.205Z,18.33
2023-04-19T16:41:09.205Z,18.26
2023-04-19T16:43:36.805Z,18.19
2023-04-19T16:46:04.082Z,18.14
2023-04-19T16:48:30.939Z,18.09
2023-04-19T16:50:57.710Z,18.07
2023-04-19T16:53:25.208Z,18.01
2023-04-19T16:55:52.131Z,17.98
2023-04-19T16:58:19.609Z,17.97
2023-04-19T17:00:46.508Z,17.94
2023-04-19T17:03:14.293Z,17.92
2023-04-19T17:05:41.209Z,17.87
2023-04-19T17:08:08.090Z,17.82
2023-04-19T17:10:34.856Z,17.76
2023-04-19T17:13:01.817Z,17.71
2023-04-19T17:15:28.746Z,17.68
2023-04-19T17:17:55.624Z,17.66
2023-04-19T17:20:22.435Z,17.62
2023-04-19T17:22:49.195Z,17.60
2023-04-19T17:25:15.975Z,17.57
2023-04-19T17:27:42.794Z,17.55
2023-04-19T17:30:09.825Z,17.51
2023-04-19T17:32:36.664Z,17.43
2023-04-19T17:35:04.556Z,17.38
2023-04-19T17:37:31.410Z,17.34
2023-04-19T17:39:58.224Z,17.30
2023-04-19T17:42:25.876Z,17.28
2023-04-19T17:44:52.941Z,17.26
2023-04-19T17:47:20.305Z,17.26
2023-04-19T17:49:47.461Z,17.26
2023-04-19T17:52:14.434Z,17.21
2023-04-19T17:54:41.223Z,17.17
2023-04-19T17:57:07.993Z,17.13
2023-04-19T17:59:35.269Z,17.11
2023-04-19T18:02:02.333Z,17.06
2023-04-19T18:04:30.789Z,17.02
2023-04-19T18:06:57.773Z,16.99
2023-04-19T18:09:24.582Z,16.95
2023-04-19T18:11:51.404Z,16.89
2023-04-19T18:14:18.177Z,16.84
2023-04-19T18:16:44.978Z,16.79
2023-04-19T18:19:11.808Z,16.72
2023-04-19T18:21:38.722Z,16.66
2023-04-19T18:24:06.181Z,16.61
2023-04-19T18:26:41.850Z,16.56
2023-04-19T18:29:09.642Z,16.49
2023-04-19T18:31:36.436Z,16.44
2023-04-19T18:34:03.692Z,16.40
2023-04-19T18:36:31.438Z,16.36
2023-04-19T18:38:58.211Z,16.32
2023-04-19T18:41:25.089Z,16.30
2023-04-19T18:44:18.463Z,16.29
2023-04-19T18:46:38.602Z,16.25
2023-04-19T18:49:07.980Z,16.23
2023-04-19T18:51:34.747Z,16.21
2023-04-19T18:54:01.626Z,16.18
2023-04-19T18:57:03.826Z,16.16
2023-04-19T18:59:15.932Z,16.15
2023-04-19T19:01:45.667Z,16.15
2023-04-19T19:04:37.430Z,16.07
2023-04-19T19:07:18.226Z,16.00
2023-04-19T19:09:56.117Z,15.91
2023-04-19T19:12:23.602Z,15.85
2023-04-19T19:14:50.398Z,15.75
2023-04-19T19:17:17.250Z,15.66
2023-04-19T19:19:44.072Z,15.63
2023-04-19T19:22:25.061Z,15.59
2023-04-19T19:24:54.074Z,15.52
2023-04-19T19:27:20.845Z,15.45
2023-04-19T19:29:47.662Z,15.40
2023-04-19T19:32:14.439Z,15.35
2023-04-19T19:34:53.814Z,15.30
2023-04-19T19:37:22.132Z,15.27
2023-04-19T19:39:48.913Z,15.19
2023-04-19T19:42:17.153Z,15.10
2023-04-19T19:44:44.066Z,15.00
2023-04-19T19:47:11.831Z,14.91
2023-04-19T19:52:08.660Z,14.84
2023-04-19T19:54:35.576Z,14.82
2023-04-19T19:59:34.854Z,14.83
2023-04-19T20:02:03.390Z,14.83
2023-04-19T20:04:31.476Z,14.82
2023-04-19T20:07:25.885Z,14.83
2023-04-19T20:09:45.294Z,14.83
2023-04-19T20:12:13.445Z,14.81
2023-04-19T20:14:40.855Z,14.72
2023-04-19T20:17:07.794Z,14.69
2023-04-19T20:19:35.730Z,14.65
2023-04-19T20:22:02.490Z,14.60
2023-04-19T20:24:29.800Z,14.51
2023-04-19T20:26:57.373Z,14.44
2023-04-19T20:29:24.222Z,14.39
2023-04-19T20:31:54.176Z,14.34
2023-04-19T20:34:23.982Z,14.29
2023-04-19T20:36:51.398Z,14.17
2023-04-19T20:39:18.933Z,14.09
2023-04-19T20:41:51.145Z,14.02
2023-04-19T20:44:18.171Z,13.99
2023-04-19T20:46:45.018Z,13.97
2023-04-19T20:49:12.032Z,13.96
2023-04-19T20:51:38.849Z,13.98
2023-04-19T20:54:05.650Z,14.00
2023-04-19T20:56:32.454Z,14.00
2023-04-19T20:58:59.221Z,14.03
2023-04-19T21:01:26.123Z,14.06
2023-04-19T21:03:53.144Z,14.11
2023-04-19T21:06:23.237Z,14.13
2023-04-19T21:08:50.447Z,14.16
2023-04-19T21:11:17.257Z,14.20
2023-04-19T21:13:44.053Z,14.20
2023-04-19T21:16:10.873Z,14.21
2023-04-19T21:18:37.640Z,14.22
2023-04-19T21:21:04.542Z,14.20
2023-04-19T21:23:31.370Z,14.17
2023-04-19T21:25:58.146Z,14.15
2023-04-19T21:28:25.032Z,14.18
2023-04-19T21:30:53.286Z,14.20
2023-04-19T21:33:20.142Z,14.20
2023-04-19T21:35:46.926Z,14.20
2023-04-19T21:38:13.689Z,14.22
2023-04-19T21:40:40.596Z,14.20
2023-04-19T21:43:07.376Z,14.21
2023-04-19T21:45:34.187Z,14.20
2023-04-19T21:48:00.996Z,14.15
2023-04-19T21:50:27.899Z,14.11
2023-04-19T21:52:54.685Z,14.08
2023-04-19T21:55:21.527Z,14.08
2023-04-19T21:57:48.279Z,14.06
2023-04-19T22:00:15.814Z,14.04
2023-04-19T22:02:42.762Z,14.02
2023-04-19T22:05:09.964Z,13.98
2023-04-19T22:07:39.359Z,13.96
2023-04-19T22:10:07.449Z,13.92
2023-04-19T22:12:34.278Z,13.90
2023-04-19T22:15:02.380Z,13.89
2023-04-19T22:17:29.772Z,13.86
2023-04-19T22:19:56.687Z,13.84
2023-04-19T22:22:23.460Z,13.81
2023-04-19T22:24:57.465Z,13.76
2023-04-19T22:27:25.659Z,13.70
2023-04-19T22:29:52.757Z,13.64
2023-04-19T22:32:19.597Z,13.61
2023-04-19T22:34:46.553Z,13.57
2023-04-19T22:37:13.324Z,13.56
2023-04-19T22:39:40.381Z,13.55
2023-04-19T22:42:07.143Z,13.54
2023-04-19T22:44:33.918Z,13.49
2023-04-19T22:47:00.785Z,13.44
2023-04-19T22:49:27.578Z,13.37
2023-04-19T22:51:54.731Z,13.31
2023-04-19T22:54:21.672Z,13.23
2023-04-19T22:56:48.438Z,13.18
2023-04-19T22:59:15.402Z,13.12
2023-04-19T23:01:42.555Z,13.08
2023-04-19T23:04:13.958Z,13.00
2023-04-19T23:06:42.505Z,12.90
2023-04-19T23:09:10.945Z,12.80
2023-04-19T23:11:39.082Z,12.72
2023-04-19T23:14:06.160Z,12.65
2023-04-19T23:16:33.311Z,12.57
2023-04-19T23:19:01.049Z,12.47
2023-04-19T23:21:29.914Z,12.39
2023-04-19T23:23:56.698Z,12.32
2023-04-19T23:26:23.556Z,12.25
2023-04-19T23:28:50.443Z,12.16
2023-04-19T23:31:17.324Z,12.07
2023-04-19T23:33:44.229Z,12.01
2023-04-19T23:36:11.084Z,11.96
2023-04-19T23:38:37.906Z,11.92
2023-04-19T23:41:04.697Z,11.90
2023-04-19T23:43:31.497Z,11.86
2023-04-19T23:45:58.277Z,11.84
2023-04-19T23:48:25.084Z,11.80
2023-04-19T23:50:51.852Z,11.76
2023-04-19T23:53:18.627Z,11.73
2023-04-19T23:55:45.410Z,11.69
2023-04-19T23:58:12.230Z,11.63
